Time,TemperatureF,DewpointF,PressureIn,WindDirection,WindDirectionDegrees,WindSpeedMPH,WindSpeedGustMPH,Humidity,HourlyPrecipIn,Conditions,Clouds,dailyrainin,SoftwareType,DateUTC
2013-01-23 00:00:00,22.5,10.3,30.29,South,169,0.0,0.0,59,0.00,CLR,,0.00,WeatherDisplay:10.37,2013-01-23 05:00:00,
2013-01-23 00:03:00,22.2,10.4,30.29,South,169,0.0,0.0,60,0.00,CLR,,0.00,WeatherDisplay:10.37,2013-01-23 05:03:00,
2013-01-23 00:08:00,22.1,10.7,30.29,South,170,0.0,0.0,61,0.00,CLR,,0.00,WeatherDisplay:10.37,2013-01-23 05:08:00,
2013-01-23 00:13:00,22.1,9.9,30.29,South,169,0.0,0.0,59,0.00,CLR,,0.00,WeatherDisplay:10.37,2013-01-23 05:13:00,
2013-01-23 00:18:00,22.2,10.4,30.29,South,169,0.0,0.0,60,0.00,CLR,,0.00,WeatherDisplay:10.37,2013-01-23 05:18:00,
2013-01-23 00:23:00,22.1,10.7,30.29,South,169,0.0,0.0,61,0.00,CLR,,0.00,WeatherDisplay:10.37,2013-01-23 05:23:00,
2013-01-23 00:28:00,21.9,10.5,30.29,South,169,0.0,0.0,61,0.00,CLR,,0.00,WeatherDisplay:10.37,2013-01-23 05:28:00,
2013-01-23 00:33:00,21.5,10.5,30.29,South,169,0.0,0.0,62,0.00,CLR,,0.00,WeatherDisplay:10.37,2013-01-23 05:33:00,
2013-01-23 00:38:00,21.2,10.9,30.29,South,169,0.0,0.0,64,0.00,CLR,,0.00,WeatherDisplay:10.37,2013-01-23 05:38:00,
2013-01-23 00:43:00,21.1,10.1,30.29,South,170,0.0,0.0,62,0.00,CLR,,0.00,WeatherDisplay:10.37,2013-01-23 05:43:00,
2013-01-23 00:48:00,21.1,11.2,30.29,South,169,0.0,0.0,65,0.00,CLR,,0.00,WeatherDisplay:10.37,2013-01-23 05:48:00,
2013-01-23 00:53:00,21.1,11.2,30.30,South,169,0.0,0.0,65,0.00,CLR,,0.00,WeatherDisplay:10.37,2013-01-23 05:53:00,
2013-01-23 00:58:00,20.9,11.7,30.30,South,169,0.0,0.0,67,0.00,CLR,,0.00,WeatherDisplay:10.37,2013-01-23 05:58:00,
2013-01-23 01:03:00,20.7,11.5,30.30,South,170,0.0,0.0,67,0.00,CLR,,0.00,WeatherDisplay:10.37,2013-01-23 06:03:00,
2013-01-23 01:08:00,20.5,10.9,30.30,South,169,0.0,0.0,66,0.00,CLR,,0.00,WeatherDisplay:10.37,2013-01-23 06:08:00,
2013-01-23 01:13:00,20.2,10.6,30.30,South,169,0.0,0.0,66,0.00,CLR,,0.00,WeatherDisplay:10.37,2013-01-23 06:13:00,
2013-01-23 01:18:00,20.4,10.8,30.30,South,169,0.0,0.0,66,0.00,CLR,,0.00,WeatherDisplay:10.37,2013-01-23 06:18:00,
2013-01-23 01:23:00,20.2,10.6,30.30,South,169,0.0,0.0,66,0.00,CLR,,0.00,WeatherDisplay:10.37,2013-01-23 06:23:00,
2013-01-23 01:28:00,20.3,11.1,30.30,South,169,0.0,0.0,67,0.00,CLR,,0.00,WeatherDisplay:10.37,2013-01-23 06:28:00,
2013-01-23 01:33:00,20.4,11.2,30.30,South,169,0.0,0.0,67,0.00,CLR,,0.00,WeatherDisplay:10.37,2013-01-23 06:33:00,
2013-01-23 01:38:00,20.5,10.9,30.30,South,169,0.0,0.0,66,0.00,CLR,,0.00,WeatherDisplay:10.37,2013-01-23 06:38:00,
2013-01-23 01:43:00,20.4,10.8,30.30,South,169,0.0,0.0,66,0.00,CLR,,0.00,WeatherDisplay:10.37,2013-01-23 06:43:00,
2013-01-23 01:48:00,20.5,10.9,30.30,South,169,0.0,0.0,66,0.00,CLR,,0.00,WeatherDisplay:10.37,2013-01-23 06:48:00,
2013-01-23 01:53:00,20.2,10.3,30.30,South,169,0.0,0.0,65,0.00,CLR,,0.00,WeatherDisplay:10.37,2013-01-23 06:53:00,
2013-01-23 01:58:00,19.8,10.3,30.30,South,169,0.0,0.0,66,0.00,CLR,,0.00,WeatherDisplay:10.37,2013-01-23 06:58:00,
2013-01-23 02:03:00,19.6,10.7,30.30,South,169,0.0,0.0,68,0.00,CLR,,0.00,WeatherDisplay:10.37,2013-01-23 07:03:00,
2013-01-23 02:08:00,19.5,10.0,30.30,South,169,0.0,0.0,66,0.00,CLR,,0.00,WeatherDisplay:10.37,2013-01-23 07:08:00,
2013-01-23 02:13:00,19.3,10.1,30.31,South,169,0.0,0.0,67,0.00,CLR,,0.00,WeatherDisplay:10.37,2013-01-23 07:13:00,
2013-01-23 02:18:00,19.1,10.3,30.31,South,169,0.0,0.0,68,0.00,CLR,,0.00,WeatherDisplay:10.37,2013-01-23 07:18:00,
2013-01-23 02:23:00,18.9,10.1,30.31,South,169,0.0,0.0,68,0.00,CLR,,0.00,WeatherDisplay:10.37,2013-01-23 07:23:00,
2013-01-23 02:29:00,18.6,10.1,30.31,South,169,0.0,0.0,69,0.00,CLR,,0.00,WeatherDisplay:10.37,2013-01-23 07:29:00,
2013-01-23 02:34:00,18.5,10.0,30.32,South,169,0.0,0.0,69,0.00,CLR,,0.00,WeatherDisplay:10.37,2013-01-23 07:34:00,
2013-01-23 02:39:00,18.9,9.7,30.31,South,169,0.0,0.0,67,0.00,CLR,,0.00,WeatherDisplay:10.37,2013-01-23 07:39:00,
2013-01-23 02:44:00,19.1,10.3,30.31,South,169,0.0,0.0,68,0.00,CLR,,0.00,WeatherDisplay:10.37,2013-01-23 07:44:00,
2013-01-23 02:49:00,19.2,10.4,30.32,South,169,0.0,0.0,68,0.00,CLR,,0.00,WeatherDisplay:10.37,2013-01-23 07:49:00,
2013-01-23 02:54:00,19.3,10.5,30.32,South,169,0.0,0.0,68,0.00,CLR,,0.00,WeatherDisplay:10.37,2013-01-23 07:54:00,
2013-01-23 02:59:00,19.2,10.7,30.32,South,169,0.0,0.0,69,0.00,CLR,,0.00,WeatherDisplay:10.37,2013-01-23 07:59:00,
2013-01-23 03:04:00,19.0,9.8,30.32,South,169,0.0,0.0,67,0.00,CLR,,0.00,WeatherDisplay:10.37,2013-01-23 08:04:00,
2013-01-23 03:09:00,18.8,10.0,30.32,South,170,0.0,0.0,68,0.00,CLR,,0.00,WeatherDisplay:10.37,2013-01-23 08:09:00,
2013-01-23 03:14:00,19.0,10.5,30.31,South,169,0.0,0.0,69,0.00,CLR,,0.00,WeatherDisplay:10.37,2013-01-23 08:14:00,
2013-01-23 03:19:00,19.0,10.5,30.31,South,169,0.0,0.0,69,0.00,CLR,,0.00,WeatherDisplay:10.37,2013-01-23 08:19:00,
2013-01-23 03:24:00,18.7,10.9,30.31,South,169,0.0,0.0,71,0.00,CLR,,0.00,WeatherDisplay:10.37,2013-01-23 08:24:00,
2013-01-23 03:29:00,18.6,10.8,30.31,South,169,0.0,0.0,71,0.00,CLR,,0.00,WeatherDisplay:10.37,2013-01-23 08:29:00,
2013-01-23 03:34:00,18.5,11.0,30.32,South,169,0.0,0.0,72,0.00,CLR,,0.00,WeatherDisplay:10.37,2013-01-23 08:34:00,
2013-01-23 03:39:00,18.3,11.1,30.31,South,169,0.0,0.0,73,0.00,CLR,,0.00,WeatherDisplay:10.37,2013-01-23 08:39:00,
2013-01-23 03:44:00,18.5,11.6,30.31,South,169,0.0,0.0,74,0.00,CLR,,0.00,WeatherDisplay:10.37,2013-01-23 08:44:00,
2013-01-23 03:49:00,18.8,11.3,30.31,South,169,0.0,0.0,72,0.00,CLR,,0.00,WeatherDisplay:10.37,2013-01-23 08:49:00,
2013-01-23 03:54:00,18.9,11.4,30.32,South,169,0.0,0.0,72,0.00,CLR,,0.00,WeatherDisplay:10.37,2013-01-23 08:54:00,
2013-01-23 03:59:00,18.8,11.3,30.32,South,169,0.0,0.0,72,0.00,CLR,,0.00,WeatherDisplay:10.37,2013-01-23 08:59:00,
2013-01-23 04:04:00,18.6,11.1,30.32,South,169,0.0,0.0,72,0.00,CLR,,0.00,WeatherDisplay:10.37,2013-01-23 09:04:00,
2013-01-23 04:09:00,18.5,11.0,30.32,South,169,0.0,0.0,72,0.00,CLR,,0.00,WeatherDisplay:10.37,2013-01-23 09:09:00,
2013-01-23 04:14:00,18.3,10.5,30.32,South,169,0.0,0.0,71,0.00,CLR,,0.00,WeatherDisplay:10.37,2013-01-23 09:14:00,
2013-01-23 04:19:00,17.8,9.7,30.32,South,169,0.0,0.0,70,0.00,CLR,,0.00,WeatherDisplay:10.37,2013-01-23 09:19:00,
2013-01-23 04:24:00,17.5,10.0,30.32,South,169,0.0,0.0,72,0.00,CLR,,0.00,WeatherDisplay:10.37,2013-01-23 09:24:00,
2013-01-23 04:29:00,17.4,9.6,30.32,South,169,0.0,0.0,71,0.00,CLR,,0.00,WeatherDisplay:10.37,2013-01-23 09:29:00,
2013-01-23 04:34:00,17.5,10.6,30.32,South,169,0.0,0.0,74,0.00,CLR,,0.00,WeatherDisplay:10.37,2013-01-23 09:34:00,
2013-01-23 04:39:00,17.5,10.6,30.33,South,169,0.0,0.0,74,0.00,CLR,,0.00,WeatherDisplay:10.37,2013-01-23 09:39:00,
2013-01-23 04:44:00,17.6,10.7,30.33,South,169,0.0,0.0,74,0.00,CLR,,0.00,WeatherDisplay:10.37,2013-01-23 09:44:00,
2013-01-23 04:49:00,17.7,10.8,30.33,South,169,0.0,0.0,74,0.00,CLR,,0.00,WeatherDisplay:10.37,2013-01-23 09:49:00,
2013-01-23 04:54:00,17.9,11.0,30.33,South,169,0.0,0.0,74,0.00,CLR,,0.00,WeatherDisplay:10.37,2013-01-23 09:54:00,
2013-01-23 04:59:00,17.9,10.4,30.33,South,169,0.0,0.0,72,0.00,CLR,,0.00,WeatherDisplay:10.37,2013-01-23 09:59:00,
2013-01-23 05:04:00,17.8,10.9,30.33,South,169,0.0,0.0,74,0.00,CLR,,0.00,WeatherDisplay:10.37,2013-01-23 10:04:00,
2013-01-23 05:09:00,17.7,11.1,30.33,South,169,0.0,0.0,75,0.00,CLR,,0.00,WeatherDisplay:10.37,2013-01-23 10:09:00,
2013-01-23 05:14:00,17.4,10.8,30.33,South,169,0.0,0.0,75,0.00,CLR,,0.00,WeatherDisplay:10.37,2013-01-23 10:14:00,
2013-01-23 05:19:00,17.2,11.5,30.33,South,169,0.0,0.0,78,0.00,CLR,,0.00,WeatherDisplay:10.37,2013-01-23 10:19:00,
2013-01-23 05:24:00,17.5,11.2,30.33,South,169,0.0,0.0,76,0.00,CLR,,0.00,WeatherDisplay:10.37,2013-01-23 10:24:00,
2013-01-23 05:29:00,17.7,11.1,30.34,South,169,0.0,0.0,75,0.00,CLR,,0.00,WeatherDisplay:10.37,2013-01-23 10:29:00,
2013-01-23 05:34:00,17.8,11.2,30.34,South,169,0.0,0.0,75,0.00,CLR,,0.00,WeatherDisplay:10.37,2013-01-23 10:34:00,
2013-01-23 05:39:00,17.8,11.5,30.34,South,169,0.0,0.0,76,0.00,CLR,,0.00,WeatherDisplay:10.37,2013-01-23 10:39:00,
2013-01-23 05:44:00,17.5,11.5,30.34,South,169,0.0,0.0,77,0.00,CLR,,0.00,WeatherDisplay:10.37,2013-01-23 10:44:00,
2013-01-23 05:49:00,17.3,11.3,30.34,South,169,0.0,0.0,77,0.00,CLR,,0.00,WeatherDisplay:10.37,2013-01-23 10:49:00,
2013-01-23 05:54:00,17.1,11.1,30.34,South,169,0.0,0.0,77,0.00,CLR,,0.00,WeatherDisplay:10.37,2013-01-23 10:54:00,
2013-01-23 05:59:00,16.8,11.1,30.34,South,169,0.0,0.0,78,0.00,CLR,,0.00,WeatherDisplay:10.37,2013-01-23 10:59:00,
2013-01-23 06:04:00,16.8,11.7,30.34,South,169,0.0,0.0,80,0.00,CLR,,0.00,WeatherDisplay:10.37,2013-01-23 11:04:00,
2013-01-23 06:09:00,16.8,11.7,30.34,South,169,0.0,0.0,80,0.00,CLR,,0.00,WeatherDisplay:10.37,2013-01-23 11:09:00,
2013-01-23 06:14:00,17.0,11.9,30.34,South,169,0.0,0.0,80,0.00,CLR,,0.00,WeatherDisplay:10.37,2013-01-23 11:14:00,
2013-01-23 06:19:00,17.1,12.0,30.34,South,169,0.0,0.0,80,0.00,CLR,,0.00,WeatherDisplay:10.37,2013-01-23 11:19:00,
2013-01-23 06:25:00,17.0,11.9,30.34,South,169,0.0,0.0,80,0.00,CLR,,0.00,WeatherDisplay:10.37,2013-01-23 11:25:00,
2013-01-23 06:30:00,16.8,11.7,30.34,South,169,0.0,0.0,80,0.00,CLR,,0.00,WeatherDisplay:10.37,2013-01-23 11:30:00,
2013-01-23 06:35:00,16.7,12.2,30.34,South,169,0.0,0.0,82,0.00,CLR,,0.00,WeatherDisplay:10.37,2013-01-23 11:35:00,
2013-01-23 06:40:00,16.7,12.2,30.34,South,169,0.0,0.0,82,0.00,CLR,,0.00,WeatherDisplay:10.37,2013-01-23 11:40:00,
2013-01-23 06:45:00,16.8,12.5,30.35,South,169,0.0,0.0,83,0.00,CLR,,0.00,WeatherDisplay:10.37,2013-01-23 11:45:00,
2013-01-23 06:50:00,17.1,12.6,30.35,South,170,0.0,0.0,82,0.00,CLR,,0.00,WeatherDisplay:10.37,2013-01-23 11:50:00,
2013-01-23 06:55:00,17.1,12.6,30.35,South,169,0.0,0.0,82,0.00,CLR,,0.00,WeatherDisplay:10.37,2013-01-23 11:55:00,
2013-01-23 07:00:00,17.1,12.8,30.35,South,169,0.0,0.0,83,0.00,CLR,,0.00,WeatherDisplay:10.37,2013-01-23 12:00:00,
2013-01-23 07:05:00,17.1,12.8,30.36,South,169,0.0,0.0,83,0.00,CLR,,0.00,WeatherDisplay:10.37,2013-01-23 12:05:00,
2013-01-23 07:10:00,17.3,13.3,30.36,South,169,0.0,0.0,84,0.00,CLR,,0.00,WeatherDisplay:10.37,2013-01-23 12:10:00,
2013-01-23 07:15:00,17.3,13.3,30.36,South,169,0.0,0.0,84,0.00,CLR,,0.00,WeatherDisplay:10.37,2013-01-23 12:15:00,
2013-01-23 07:20:00,17.4,13.4,30.36,South,169,0.0,0.0,84,0.00,CLR,,0.00,WeatherDisplay:10.37,2013-01-23 12:20:00,
2013-01-23 07:25:00,17.3,13.3,30.36,South,169,0.0,0.0,84,0.00,CLR,,0.00,WeatherDisplay:10.37,2013-01-23 12:25:00,
2013-01-23 07:30:00,17.1,13.4,30.36,South,169,0.0,0.0,85,0.00,CLR,,0.00,WeatherDisplay:10.37,2013-01-23 12:30:00,
2013-01-23 07:35:00,17.0,13.3,30.37,South,169,0.0,0.0,85,0.00,CLR,,0.00,WeatherDisplay:10.37,2013-01-23 12:35:00,
2013-01-23 07:40:00,16.8,13.1,30.37,South,169,0.0,0.0,85,0.00,CLR,,0.00,WeatherDisplay:10.37,2013-01-23 12:40:00,
2013-01-23 07:45:00,17.0,13.5,30.37,South,170,0.0,0.0,86,0.00,CLR,,0.00,WeatherDisplay:10.37,2013-01-23 12:45:00,
2013-01-23 07:50:00,17.3,13.8,30.36,South,169,0.0,0.0,86,0.00,CLR,,0.00,WeatherDisplay:10.37,2013-01-23 12:50:00,
2013-01-23 07:55:00,17.5,13.8,30.36,South,169,0.0,0.0,85,0.00,CLR,,0.00,WeatherDisplay:10.37,2013-01-23 12:55:00,
2013-01-23 08:00:00,17.8,14.1,30.36,South,169,0.0,0.0,85,0.00,CLR,,0.00,WeatherDisplay:10.37,2013-01-23 13:00:00,
2013-01-23 08:05:00,18.1,14.4,30.36,South,169,0.0,0.0,85,0.00,CLR,,0.00,WeatherDisplay:10.37,2013-01-23 13:05:00,
2013-01-23 08:10:00,18.4,14.6,30.36,South,170,0.0,0.0,85,0.00,CLR,,0.00,WeatherDisplay:10.37,2013-01-23 13:10:00,
2013-01-23 08:15:00,18.9,15.1,30.36,South,169,0.0,0.0,85,0.00,CLR,,0.00,WeatherDisplay:10.37,2013-01-23 13:15:00,
2013-01-23 08:20:00,19.3,15.5,30.36,South,169,0.0,0.0,85,0.00,CLR,,0.00,WeatherDisplay:10.37,2013-01-23 13:20:00,
2013-01-23 08:25:00,19.9,15.8,30.36,South,169,0.0,0.0,84,0.00,CLR,,0.00,WeatherDisplay:10.37,2013-01-23 13:25:00,
2013-01-23 08:30:00,21.0,16.9,30.36,SSE,168,0.0,0.0,84,0.00,CLR,,0.00,WeatherDisplay:10.37,2013-01-23 13:30:00,
2013-01-23 08:35:00,22.1,17.2,30.36,South,169,0.0,0.0,81,0.00,CLR,,0.00,WeatherDisplay:10.37,2013-01-23 13:35:00,
2013-01-23 08:40:00,23.4,17.8,30.37,SSE,168,0.0,0.0,79,0.00,CLR,,0.00,WeatherDisplay:10.37,2013-01-23 13:40:00,
2013-01-23 08:45:00,24.6,17.8,30.37,South,169,0.0,0.0,75,0.00,CLR,,0.00,WeatherDisplay:10.37,2013-01-23 13:45:00,
2013-01-23 08:50:00,25.8,17.0,30.37,SE,135,0.0,0.0,69,0.00,CLR,,0.00,WeatherDisplay:10.37,2013-01-23 13:50:00,
2013-01-23 08:55:00,26.8,17.0,30.37,SE,135,0.0,0.0,66,0.00,CLR,,0.00,WeatherDisplay:10.37,2013-01-23 13:55:00,
2013-01-23 09:00:00,27.3,13.2,30.37,ESE,121,0.0,0.0,55,0.00,CLR,,0.00,WeatherDisplay:10.37,2013-01-23 14:00:00,
2013-01-23 09:05:00,27.3,9.7,30.38,NNE,32,2.3,2.3,47,0.00,CLR,,0.00,WeatherDisplay:10.37,2013-01-23 14:05:00,
2013-01-23 09:10:00,27.3,10.6,30.38,ENE,58,1.1,1.1,49,0.00,CLR,,0.00,WeatherDisplay:10.37,2013-01-23 14:10:00,
2013-01-23 09:15:00,28.0,10.8,30.38,North,354,0.0,0.0,48,0.00,CLR,,0.00,WeatherDisplay:10.37,2013-01-23 14:15:00,
2013-01-23 09:20:00,28.0,8.4,30.38,ESE,119,1.0,1.1,43,0.00,CLR,,0.00,WeatherDisplay:10.37,2013-01-23 14:20:00,
2013-01-23 09:25:00,28.2,9.0,30.38,ENE,65,2.3,2.3,44,0.00,CLR,,0.00,WeatherDisplay:10.37,2013-01-23 14:25:00,
2013-01-23 09:30:00,28.7,9.5,30.38,South,169,0.0,0.0,44,0.00,CLR,,0.00,WeatherDisplay:10.37,2013-01-23 14:30:00,
2013-01-23 09:35:00,28.6,8.4,30.38,SW,225,1.1,1.1,42,0.00,CLR,,0.00,WeatherDisplay:10.37,2013-01-23 14:35:00,
2013-01-23 09:40:00,28.8,8.0,30.39,ESE,104,2.0,2.0,41,0.00,CLR,,0.00,WeatherDisplay:10.37,2013-01-23 14:40:00,
2013-01-23 10:28:00,30.9,5.1,30.39,NE,56,6.9,7.0,33,0.00,CLR,,0.00,WeatherDisplay:10.37,2013-01-23 15:28:00,
2013-01-23 10:33:00,31.0,4.5,30.39,SW,233,2.3,2.3,32,0.00,CLR,,0.00,WeatherDisplay:10.37,2013-01-23 15:33:00,
2013-01-23 10:38:00,31.2,4.7,30.38,WNW,287,3.5,3.5,32,0.00,CLR,,0.00,WeatherDisplay:10.37,2013-01-23 15:38:00,
2013-01-23 10:43:00,31.1,3.2,30.38,WSW,258,2.3,2.3,30,0.00,CLR,,0.00,WeatherDisplay:10.37,2013-01-23 15:43:00,
2013-01-23 10:48:00,31.3,4.8,30.38,NNW,328,2.3,2.3,32,0.00,CLR,,0.00,WeatherDisplay:10.37,2013-01-23 15:48:00,
2013-01-23 10:53:00,31.8,3.8,30.38,WNW,295,2.3,2.5,30,0.00,CLR,,0.00,WeatherDisplay:10.37,2013-01-23 15:53:00,
2013-01-23 10:58:00,32.1,4.1,30.37,North,350,2.3,2.3,30,0.00,CLR,,0.00,WeatherDisplay:10.37,2013-01-23 15:58:00,
2013-01-23 11:03:00,32.4,5.1,30.37,South,191,2.0,2.0,31,0.00,CLR,,0.00,WeatherDisplay:10.37,2013-01-23 16:03:00,
2013-01-23 11:08:00,32.6,3.8,30.37,NW,314,2.3,2.3,29,0.00,CLR,,0.00,WeatherDisplay:10.37,2013-01-23 16:08:00,
2013-01-23 11:13:00,32.3,2.8,30.37,WSW,245,3.5,3.5,28,0.00,CLR,,0.00,WeatherDisplay:10.37,2013-01-23 16:13:00,
2013-01-23 11:18:00,32.5,5.2,30.36,WSW,255,2.0,2.0,31,0.00,CLR,,0.00,WeatherDisplay:10.37,2013-01-23 16:18:00,
2013-01-23 11:23:00,33.1,4.2,30.36,SE,138,1.1,1.1,29,0.00,CLR,,0.00,WeatherDisplay:10.37,2013-01-23 16:23:00,
2013-01-23 11:28:00,33.5,4.6,30.35,WSW,247,3.5,3.5,29,0.00,CLR,,0.00,WeatherDisplay:10.37,2013-01-23 16:28:00,
2013-01-23 11:33:00,34.1,5.9,30.35,NNW,347,3.5,3.5,30,0.00,CLR,,0.00,WeatherDisplay:10.37,2013-01-23 16:33:00,
2013-01-23 11:38:00,34.3,4.5,30.35,WNW,295,3.5,3.5,28,0.00,CLR,,0.00,WeatherDisplay:10.37,2013-01-23 16:38:00,
2013-01-23 11:43:00,34.3,5.3,30.35,SSE,158,1.1,0.0,29,0.00,CLR,,0.00,WeatherDisplay:10.37,2013-01-23 16:43:00,
2013-01-23 11:48:00,34.4,4.6,30.34,ENE,65,3.5,3.5,28,0.00,CLR,,0.00,WeatherDisplay:10.37,2013-01-23 16:48:00,
2013-01-23 11:53:00,34.7,6.4,30.34,NNE,18,2.3,2.3,30,0.00,CLR,,0.00,WeatherDisplay:10.37,2013-01-23 16:53:00,
2013-01-23 11:58:00,34.6,5.5,30.33,SW,224,2.3,2.3,29,0.00,CLR,,0.00,WeatherDisplay:10.37,2013-01-23 16:58:00,
2013-01-23 12:03:00,34.8,4.9,30.33,SW,229,3.5,3.5,28,0.00,CLR,,0.00,WeatherDisplay:10.37,2013-01-23 17:03:00,
2013-01-23 12:08:00,35.2,6.8,30.33,SW,234,5.8,5.8,30,0.00,CLR,,0.00,WeatherDisplay:10.37,2013-01-23 17:08:00,
2013-01-23 12:13:00,35.1,6.0,30.32,SW,217,4.6,4.6,29,0.00,CLR,,0.00,WeatherDisplay:10.37,2013-01-23 17:13:00,
2013-01-23 12:18:00,35.0,5.1,30.32,NNE,25,5.8,5.8,28,0.00,CLR,,0.00,WeatherDisplay:10.37,2013-01-23 17:18:00,
2013-01-23 12:24:00,35.2,7.5,30.32,NNW,347,2.3,2.3,31,0.00,CLR,,0.00,WeatherDisplay:10.37,2013-01-23 17:24:00,
2013-01-23 12:29:00,35.5,5.6,30.31,West,273,3.5,3.5,28,0.00,CLR,,0.00,WeatherDisplay:10.37,2013-01-23 17:29:00,
2013-01-23 12:34:00,36.0,6.8,30.30,WNW,287,3.5,3.5,29,0.00,CLR,,0.00,WeatherDisplay:10.37,2013-01-23 17:34:00,
2013-01-23 12:39:00,36.3,7.8,30.30,WNW,290,1.1,1.1,30,0.00,CLR,,0.00,WeatherDisplay:10.37,2013-01-23 17:39:00,
2013-01-23 12:44:00,37.0,8.4,30.29,WSW,238,3.5,3.5,30,0.00,CLR,,0.00,WeatherDisplay:10.37,2013-01-23 17:44:00,
2013-01-23 12:49:00,36.9,7.5,30.29,WSW,248,4.0,4.0,29,0.00,CLR,,0.00,WeatherDisplay:10.37,2013-01-23 17:49:00,
2013-01-23 12:54:00,36.9,8.3,30.29,SW,233,5.8,5.8,30,0.00,CLR,,0.00,WeatherDisplay:10.37,2013-01-23 17:54:00,
2013-01-23 12:59:00,37.1,8.5,30.28,NNW,329,3.5,3.5,30,0.00,CLR,,0.00,WeatherDisplay:10.37,2013-01-23 17:59:00,
2013-01-23 13:04:00,37.1,9.2,30.28,SW,224,3.5,3.5,31,0.00,CLR,,0.00,WeatherDisplay:10.37,2013-01-23 18:04:00,
2013-01-23 13:09:00,37.8,9.1,30.28,SSW,210,4.6,4.6,30,0.00,CLR,,0.00,WeatherDisplay:10.37,2013-01-23 18:09:00,
2013-01-23 13:14:00,37.7,8.2,30.27,South,173,3.5,3.5,29,0.00,CLR,,0.00,WeatherDisplay:10.37,2013-01-23 18:14:00,
2013-01-23 13:19:00,38.1,9.4,30.27,SW,226,3.5,3.5,30,0.00,CLR,,0.00,WeatherDisplay:10.37,2013-01-23 18:19:00,
2013-01-23 13:24:00,38.6,9.8,30.26,SSW,205,5.8,5.8,30,0.00,CLR,,0.00,WeatherDisplay:10.37,2013-01-23 18:24:00,
2013-01-23 13:29:00,38.4,9.6,30.26,SSW,204,5.0,5.0,30,0.00,CLR,,0.00,WeatherDisplay:10.37,2013-01-23 18:29:00,
2013-01-23 13:34:00,38.4,9.6,30.26,West,281,5.8,5.8,30,0.00,CLR,,0.00,WeatherDisplay:10.37,2013-01-23 18:34:00,
2013-01-23 13:39:00,38.3,9.5,30.26,NNW,333,4.0,4.0,30,0.00,CLR,,0.00,WeatherDisplay:10.37,2013-01-23 18:39:00,
2013-01-23 13:44:00,37.8,9.1,30.25,NNW,336,3.5,3.5,30,0.00,CLR,,0.00,WeatherDisplay:10.37,2013-01-23 18:44:00,
2013-01-23 13:49:00,38.3,11.0,30.25,NE,44,3.5,3.5,32,0.00,CLR,,0.00,WeatherDisplay:10.37,2013-01-23 18:49:00,
2013-01-23 13:54:00,38.8,10.7,30.25,WNW,294,3.5,3.5,31,0.00,CLR,,0.00,WeatherDisplay:10.37,2013-01-23 18:54:00,
2013-01-23 13:59:00,39.2,10.3,30.25,WNW,285,3.5,3.5,30,0.00,CLR,,0.00,WeatherDisplay:10.37,2013-01-23 18:59:00,
2013-01-23 14:04:00,39.1,11.0,30.25,NW,305,4.6,4.6,31,0.00,CLR,,0.00,WeatherDisplay:10.37,2013-01-23 19:04:00,
2013-01-23 14:09:00,39.2,11.0,30.25,NNW,338,5.0,5.0,31,0.00,CLR,,0.00,WeatherDisplay:10.37,2013-01-23 19:09:00,
2013-01-23 14:14:00,38.7,10.6,30.25,West,281,5.0,5.0,31,0.00,CLR,,0.00,WeatherDisplay:10.37,2013-01-23 19:14:00,
2013-01-23 14:19:00,38.7,11.3,30.25,WNW,298,2.3,2.3,32,0.00,CLR,,0.00,WeatherDisplay:10.37,2013-01-23 19:19:00,
2013-01-23 14:24:00,39.6,12.1,30.24,West,259,2.3,2.3,32,0.00,CLR,,0.00,WeatherDisplay:10.37,2013-01-23 19:24:00,
2013-01-23 14:29:00,40.0,11.8,30.25,SSE,166,6.9,6.9,31,0.00,CLR,,0.00,WeatherDisplay:10.37,2013-01-23 19:29:00,
2013-01-23 14:34:00,40.6,11.5,30.24,SW,235,4.6,4.6,30,0.00,CLR,,0.00,WeatherDisplay:10.37,2013-01-23 19:34:00,
2013-01-23 14:39:00,40.7,11.6,30.24,WNW,288,3.5,3.5,30,0.00,CLR,,0.00,WeatherDisplay:10.37,2013-01-23 19:39:00,
2013-01-23 14:44:00,40.5,12.2,30.24,NNW,330,2.3,2.3,31,0.00,CLR,,0.00,WeatherDisplay:10.37,2013-01-23 19:44:00,
2013-01-23 14:49:00,39.9,11.7,30.24,West,269,2.3,2.3,31,0.00,CLR,,0.00,WeatherDisplay:10.37,2013-01-23 19:49:00,
2013-01-23 14:54:00,39.6,12.1,30.24,WNW,298,4.6,4.6,32,0.00,CLR,,0.00,WeatherDisplay:10.37,2013-01-23 19:54:00,
2013-01-23 14:59:00,39.3,12.6,30.23,WSW,246,2.3,0.0,33,0.00,CLR,,0.00,WeatherDisplay:10.37,2013-01-23 19:59:00,
2013-01-23 15:04:00,39.1,12.4,30.23,WSW,243,6.9,6.9,33,0.00,CLR,,0.00,WeatherDisplay:10.37,2013-01-23 20:04:00,
2013-01-23 15:09:00,39.3,12.6,30.23,WNW,296,6.9,6.9,33,0.00,CLR,,0.00,WeatherDisplay:10.37,2013-01-23 20:09:00,
2013-01-23 15:14:00,39.7,13.6,30.23,WSW,243,3.5,3.5,34,0.00,CLR,,0.00,WeatherDisplay:10.37,2013-01-23 20:14:00,
2013-01-23 15:19:00,40.6,13.0,30.23,SW,221,3.5,3.5,32,0.00,CLR,,0.00,WeatherDisplay:10.37,2013-01-23 20:19:00,
2013-01-23 15:24:00,41.1,12.7,30.23,SW,233,7.0,7.0,31,0.00,CLR,,0.00,WeatherDisplay:10.37,2013-01-23 20:24:00,
2013-01-23 15:29:00,41.1,12.7,30.23,WSW,251,4.6,4.6,31,0.00,CLR,,0.00,WeatherDisplay:10.37,2013-01-23 20:29:00,
2013-01-23 15:34:00,41.0,12.6,30.23,West,262,2.3,2.3,31,0.00,CLR,,0.00,WeatherDisplay:10.37,2013-01-23 20:34:00,
2013-01-23 15:39:00,41.3,13.6,30.23,West,276,3.5,3.5,32,0.00,CLR,,0.00,WeatherDisplay:10.37,2013-01-23 20:39:00,
2013-01-23 15:44:00,42.0,13.5,30.22,West,276,2.3,2.6,31,0.00,CLR,,0.00,WeatherDisplay:10.37,2013-01-23 20:44:00,
2013-01-23 15:49:00,42.3,13.8,30.22,SW,215,3.5,3.5,31,0.00,CLR,,0.00,WeatherDisplay:10.37,2013-01-23 20:49:00,
2013-01-23 15:54:00,42.1,13.6,30.22,WSW,248,2.3,2.3,31,0.00,CLR,,0.00,WeatherDisplay:10.37,2013-01-23 20:54:00,
2013-01-23 15:59:00,42.5,14.7,30.21,SW,236,3.5,3.5,32,0.00,CLR,,0.00,WeatherDisplay:10.37,2013-01-23 20:59:00,
2013-01-23 16:04:00,42.2,13.7,30.21,NW,307,3.5,3.5,31,0.00,CLR,,0.00,WeatherDisplay:10.37,2013-01-23 21:04:00,
2013-01-23 16:09:00,42.4,13.9,30.21,SW,227,4.6,4.6,31,0.00,CLR,,0.00,WeatherDisplay:10.37,2013-01-23 21:09:00,
2013-01-23 16:14:00,42.0,13.5,30.21,WSW,243,3.5,3.5,31,0.00,CLR,,0.00,WeatherDisplay:10.37,2013-01-23 21:14:00,
2013-01-23 16:19:00,41.6,13.9,30.21,WNW,294,3.5,3.5,32,0.00,CLR,,0.00,WeatherDisplay:10.37,2013-01-23 21:19:00,
2013-01-23 16:24:00,40.9,13.3,30.20,NNW,337,3.5,3.5,32,0.00,CLR,,0.00,WeatherDisplay:10.37,2013-01-23 21:24:00,
2013-01-23 16:29:00,40.2,13.3,30.20,West,274,2.3,2.3,33,0.00,CLR,,0.00,WeatherDisplay:10.37,2013-01-23 21:29:00,
2013-01-23 16:34:00,40.0,13.8,30.20,West,280,4.6,4.6,34,0.00,CLR,,0.00,WeatherDisplay:10.37,2013-01-23 21:34:00,
2013-01-23 16:39:00,40.0,13.8,30.20,WNW,293,2.3,2.3,34,0.00,CLR,,0.00,WeatherDisplay:10.37,2013-01-23 21:39:00,
2013-01-23 16:44:00,40.0,13.8,30.21,WSW,250,1.1,1.1,34,0.00,CLR,,0.00,WeatherDisplay:10.37,2013-01-23 21:44:00,
2013-01-23 16:49:00,39.9,14.4,30.21,WNW,300,4.6,4.6,35,0.00,CLR,,0.00,WeatherDisplay:10.37,2013-01-23 21:49:00,
2013-01-23 16:54:00,39.7,14.2,30.21,West,267,4.6,4.6,35,0.00,CLR,,0.00,WeatherDisplay:10.37,2013-01-23 21:54:00,
2013-01-23 16:59:00,39.4,14.6,30.21,SW,228,1.1,1.1,36,0.00,CLR,,0.00,WeatherDisplay:10.37,2013-01-23 21:59:00,
2013-01-23 17:04:00,39.2,14.4,30.21,NW,306,3.5,3.5,36,0.00,CLR,,0.00,WeatherDisplay:10.37,2013-01-23 22:04:00,
2013-01-23 17:09:00,38.9,14.2,30.21,NW,313,2.3,2.3,36,0.00,CLR,,0.00,WeatherDisplay:10.37,2013-01-23 22:09:00,
2013-01-23 17:14:00,38.7,14.6,30.21,WNW,290,1.1,1.1,37,0.00,CLR,,0.00,WeatherDisplay:10.37,2013-01-23 22:14:00,
2013-01-23 17:19:00,38.4,14.4,30.21,WSW,253,1.1,1.1,37,0.00,CLR,,0.00,WeatherDisplay:10.37,2013-01-23 22:19:00,
2013-01-23 17:24:00,38.2,14.2,30.21,West,281,2.3,2.3,37,0.00,CLR,,0.00,WeatherDisplay:10.37,2013-01-23 22:24:00,
2013-01-23 17:30:00,38.0,14.0,30.21,WSW,256,1.1,1.1,37,0.00,CLR,,0.00,WeatherDisplay:10.37,2013-01-23 22:30:00,
2013-01-23 17:35:00,37.8,14.4,30.22,SW,224,3.5,3.5,38,0.00,CLR,,0.00,WeatherDisplay:10.37,2013-01-23 22:35:00,
2013-01-23 17:40:00,37.5,14.2,30.22,SW,226,0.0,0.0,38,0.00,CLR,,0.00,WeatherDisplay:10.37,2013-01-23 22:40:00,
2013-01-23 17:45:00,37.0,14.3,30.21,SW,226,0.0,0.0,39,0.00,CLR,,0.00,WeatherDisplay:10.37,2013-01-23 22:45:00,
2013-01-23 17:50:00,36.5,14.4,30.21,WSW,250,0.0,0.0,40,0.00,CLR,,0.00,WeatherDisplay:10.37,2013-01-23 22:50:00,
2013-01-23 17:55:00,36.0,14.0,30.21,WSW,250,0.0,0.0,40,0.00,CLR,,0.00,WeatherDisplay:10.37,2013-01-23 22:55:00,
2013-01-23 18:00:00,35.3,13.9,30.21,WSW,250,0.0,0.0,41,0.00,CLR,,0.00,WeatherDisplay:10.37,2013-01-23 23:00:00,
2013-01-23 18:05:00,34.7,13.9,30.20,WSW,250,0.0,0.0,42,0.00,CLR,,0.00,WeatherDisplay:10.37,2013-01-23 23:05:00,
2013-01-23 18:10:00,34.1,13.4,30.20,WSW,250,0.0,0.0,42,0.00,CLR,,0.00,WeatherDisplay:10.37,2013-01-23 23:10:00,
2013-01-23 18:15:00,33.6,14.5,30.20,WSW,250,0.0,0.0,45,0.00,CLR,,0.00,WeatherDisplay:10.37,2013-01-23 23:15:00,
2013-01-23 18:20:00,33.1,15.5,30.20,WSW,250,0.0,0.0,48,0.00,CLR,,0.00,WeatherDisplay:10.37,2013-01-23 23:20:00,
2013-01-23 18:25:00,32.9,16.3,30.20,WSW,250,0.0,0.0,50,0.00,CLR,,0.00,WeatherDisplay:10.37,2013-01-23 23:25:00,
2013-01-23 18:30:00,32.7,15.6,30.20,WSW,250,0.0,0.0,49,0.00,CLR,,0.00,WeatherDisplay:10.37,2013-01-23 23:30:00,
2013-01-23 18:35:00,32.5,15.4,30.20,WSW,250,0.0,0.0,49,0.00,CLR,,0.00,WeatherDisplay:10.37,2013-01-23 23:35:00,
2013-01-23 18:40:00,32.4,15.8,30.19,WSW,250,1.0,0.0,50,0.00,CLR,,0.00,WeatherDisplay:10.37,2013-01-23 23:40:00,
2013-01-23 18:45:00,32.2,15.6,30.19,WSW,250,0.0,0.0,50,0.00,CLR,,0.00,WeatherDisplay:10.37,2013-01-23 23:45:00,
2013-01-23 18:50:00,31.9,15.8,30.19,WSW,250,0.0,0.0,51,0.00,CLR,,0.00,WeatherDisplay:10.37,2013-01-23 23:50:00,
2013-01-23 18:55:00,31.6,16.4,30.19,WSW,250,0.0,0.0,53,0.00,CLR,,0.00,WeatherDisplay:10.37,2013-01-23 23:55:00,
2013-01-23 19:00:00,31.3,16.6,30.19,WSW,250,0.0,0.0,54,0.00,CLR,,0.00,WeatherDisplay:10.37,2013-01-24 00:00:00,
2013-01-23 19:05:00,31.0,16.3,30.18,WSW,250,0.0,0.0,54,0.00,CLR,,0.00,WeatherDisplay:10.37,2013-01-24 00:05:00,
2013-01-23 19:10:00,30.6,16.3,30.18,WSW,250,0.0,0.0,55,0.00,CLR,,0.00,WeatherDisplay:10.37,2013-01-24 00:10:00,
2013-01-23 19:15:00,30.3,16.5,30.18,WSW,250,0.0,0.0,56,0.00,CLR,,0.00,WeatherDisplay:10.37,2013-01-24 00:15:00,
2013-01-23 19:20:00,30.0,16.6,30.18,WSW,250,0.0,0.0,57,0.00,CLR,,0.00,WeatherDisplay:10.37,2013-01-24 00:20:00,
2013-01-23 19:25:00,29.8,16.0,30.18,WSW,250,0.0,0.0,56,0.00,CLR,,0.00,WeatherDisplay:10.37,2013-01-24 00:25:00,
2013-01-23 19:30:00,29.7,16.3,30.18,WSW,250,0.0,0.0,57,0.00,CLR,,0.00,WeatherDisplay:10.37,2013-01-24 00:30:00,
2013-01-23 19:35:00,29.9,16.1,30.18,WSW,250,0.0,0.0,56,0.00,CLR,,0.00,WeatherDisplay:10.37,2013-01-24 00:35:00,
2013-01-23 19:40:00,30.0,16.2,30.17,WSW,250,0.0,0.0,56,0.00,CLR,,0.00,WeatherDisplay:10.37,2013-01-24 00:40:00,
2013-01-23 19:45:00,29.9,16.1,30.17,WSW,250,0.0,0.0,56,0.00,CLR,,0.00,WeatherDisplay:10.37,2013-01-24 00:45:00,
2013-01-23 19:50:00,29.5,16.1,30.17,WSW,250,0.0,0.0,57,0.00,CLR,,0.00,WeatherDisplay:10.37,2013-01-24 00:50:00,
2013-01-23 19:55:00,29.1,16.5,30.17,WSW,250,0.0,0.0,59,0.00,CLR,,0.00,WeatherDisplay:10.37,2013-01-24 00:55:00,
2013-01-23 20:00:00,29.1,17.3,30.17,WSW,250,0.0,0.0,61,0.00,CLR,,0.00,WeatherDisplay:10.37,2013-01-24 01:00:00,
2013-01-23 20:05:00,29.2,16.2,30.17,WSW,250,0.0,0.0,58,0.00,CLR,,0.00,WeatherDisplay:10.37,2013-01-24 01:05:00,
2013-01-23 20:10:00,29.1,16.1,30.16,WSW,250,0.0,0.0,58,0.00,CLR,,0.00,WeatherDisplay:10.37,2013-01-24 01:10:00,
2013-01-23 20:15:00,29.0,15.7,30.16,WSW,250,0.0,0.0,57,0.00,CLR,,0.00,WeatherDisplay:10.37,2013-01-24 01:15:00,
2013-01-23 20:20:00,29.0,15.7,30.17,WSW,251,0.0,0.0,57,0.00,CLR,,0.00,WeatherDisplay:10.37,2013-01-24 01:20:00,
2013-01-23 20:25:00,29.1,15.7,30.17,WSW,250,0.0,0.0,57,0.00,CLR,,0.00,WeatherDisplay:10.37,2013-01-24 01:25:00,
2013-01-23 20:30:00,29.1,14.9,30.17,WSW,250,0.0,0.0,55,0.00,CLR,,0.00,WeatherDisplay:10.37,2013-01-24 01:30:00,
2013-01-23 20:35:00,29.0,15.7,30.17,WSW,250,0.0,0.0,57,0.00,CLR,,0.00,WeatherDisplay:10.37,2013-01-24 01:35:00,
2013-01-23 20:40:00,29.1,15.7,30.16,WSW,250,0.0,0.0,57,0.00,CLR,,0.00,WeatherDisplay:10.37,2013-01-24 01:40:00,
2013-01-23 20:45:00,28.9,15.6,30.16,WSW,250,0.0,0.0,57,0.00,CLR,,0.00,WeatherDisplay:10.37,2013-01-24 01:45:00,
2013-01-23 20:50:00,28.9,16.0,30.16,WSW,251,0.0,0.0,58,0.00,CLR,,0.00,WeatherDisplay:10.37,2013-01-24 01:50:00,
2013-01-23 20:55:00,28.7,15.8,30.16,WSW,250,0.0,0.0,58,0.00,CLR,,0.00,WeatherDisplay:10.37,2013-01-24 01:55:00,
2013-01-23 21:00:00,28.6,16.1,30.16,WSW,250,0.0,0.0,59,0.00,CLR,,0.00,WeatherDisplay:10.37,2013-01-24 02:00:00,
2013-01-23 21:05:00,28.5,16.4,30.16,WSW,250,0.0,0.0,60,0.00,CLR,,0.00,WeatherDisplay:10.37,2013-01-24 02:05:00,
2013-01-23 21:10:00,28.4,16.3,30.15,WSW,250,0.0,0.0,60,0.00,CLR,,0.00,WeatherDisplay:10.37,2013-01-24 02:10:00,
2013-01-23 21:15:00,28.2,15.7,30.15,WSW,250,0.0,0.0,59,0.00,CLR,,0.00,WeatherDisplay:10.37,2013-01-24 02:15:00,
2013-01-23 21:20:00,28.0,15.9,30.15,WSW,251,0.0,0.0,60,0.00,CLR,,0.00,WeatherDisplay:10.37,2013-01-24 02:20:00,
2013-01-23 21:25:00,27.8,16.5,30.14,WSW,250,0.0,0.0,62,0.00,CLR,,0.00,WeatherDisplay:10.37,2013-01-24 02:25:00,
2013-01-23 21:30:00,27.7,16.4,30.15,WSW,250,0.0,0.0,62,0.00,CLR,,0.00,WeatherDisplay:10.37,2013-01-24 02:30:00,
2013-01-23 21:35:00,27.7,16.7,30.14,WSW,250,0.0,0.0,63,0.00,CLR,,0.00,WeatherDisplay:10.37,2013-01-24 02:35:00,
2013-01-23 21:40:00,27.8,16.5,30.14,WSW,250,0.0,0.0,62,0.00,CLR,,0.00,WeatherDisplay:10.37,2013-01-24 02:40:00,
2013-01-23 21:45:00,27.7,16.7,30.14,WSW,250,0.0,0.0,63,0.00,CLR,,0.00,WeatherDisplay:10.37,2013-01-24 02:45:00,
2013-01-23 21:50:00,27.6,17.0,30.13,WSW,250,0.0,0.0,64,0.00,CLR,,0.00,WeatherDisplay:10.37,2013-01-24 02:50:00,
2013-01-23 21:55:00,27.6,17.0,30.13,WSW,250,0.0,0.0,64,0.00,CLR,,0.00,WeatherDisplay:10.37,2013-01-24 02:55:00,
2013-01-23 22:00:00,27.5,16.9,30.13,WSW,250,0.0,0.0,64,0.00,CLR,,0.00,WeatherDisplay:10.37,2013-01-24 03:00:00,
2013-01-23 22:05:00,27.6,17.0,30.12,WSW,250,0.0,0.0,64,0.00,CLR,,0.00,WeatherDisplay:10.37,2013-01-24 03:05:00,
2013-01-23 22:10:00,27.6,17.0,30.12,WSW,250,0.0,0.0,64,0.00,CLR,,0.00,WeatherDisplay:10.37,2013-01-24 03:10:00,
2013-01-23 22:15:00,27.6,17.0,30.12,WSW,250,0.0,0.0,64,0.00,CLR,,0.00,WeatherDisplay:10.37,2013-01-24 03:15:00,
2013-01-23 22:20:00,27.3,16.7,30.12,WSW,250,0.0,0.0,64,0.00,CLR,,0.00,WeatherDisplay:10.37,2013-01-24 03:20:00,
2013-01-23 22:25:00,27.0,17.5,30.12,WSW,250,0.0,0.0,67,0.00,CLR,,0.00,WeatherDisplay:10.37,2013-01-24 03:25:00,
2013-01-23 22:30:00,27.1,17.9,30.12,WSW,250,0.0,0.0,68,0.00,CLR,,0.00,WeatherDisplay:10.37,2013-01-24 03:30:00,
2013-01-23 22:35:00,27.0,17.5,30.12,WSW,250,0.0,0.0,67,0.00,CLR,,0.00,WeatherDisplay:10.37,2013-01-24 03:35:00,
2013-01-23 22:40:00,26.7,17.6,30.12,WSW,250,0.0,0.0,68,0.00,CLR,,0.00,WeatherDisplay:10.37,2013-01-24 03:40:00,
2013-01-23 22:45:00,26.7,17.2,30.11,WSW,251,0.0,0.0,67,0.00,CLR,,0.00,WeatherDisplay:10.37,2013-01-24 03:45:00,
2013-01-23 22:50:00,26.9,17.7,30.11,WSW,250,0.0,0.0,68,0.00,CLR,,0.00,WeatherDisplay:10.37,2013-01-24 03:50:00,
2013-01-23 22:55:00,27.3,17.4,30.11,South,177,1.1,1.1,66,0.00,CLR,,0.00,WeatherDisplay:10.37,2013-01-24 03:55:00,
2013-01-23 23:00:00,28.0,17.4,30.10,SW,229,1.1,1.1,64,0.00,CLR,,0.00,WeatherDisplay:10.37,2013-01-24 04:00:00,
2013-01-23 23:06:00,28.6,17.6,30.10,SSW,209,3.5,3.5,63,0.00,CLR,,0.00,WeatherDisplay:10.37,2013-01-24 04:06:00,
2013-01-23 23:11:00,29.2,17.4,30.09,SW,229,0.0,0.0,61,0.00,CLR,,0.00,WeatherDisplay:10.37,2013-01-24 04:11:00,
2013-01-23 23:16:00,29.4,17.6,30.09,South,181,0.0,0.0,61,0.00,CLR,,0.00,WeatherDisplay:10.37,2013-01-24 04:16:00,
2013-01-23 23:21:00,29.7,17.5,30.09,SW,219,1.1,1.1,60,0.00,CLR,,0.00,WeatherDisplay:10.37,2013-01-24 04:21:00,
2013-01-23 23:26:00,29.8,17.6,30.09,SW,231,0.0,0.0,60,0.00,CLR,,0.00,WeatherDisplay:10.37,2013-01-24 04:26:00,
2013-01-23 23:31:00,30.1,17.5,30.09,SW,231,0.0,0.0,59,0.00,CLR,,0.00,WeatherDisplay:10.37,2013-01-24 04:31:00,
2013-01-23 23:36:00,30.4,17.4,30.09,South,186,0.0,0.0,58,0.00,CLR,,0.00,WeatherDisplay:10.37,2013-01-24 04:36:00,
2013-01-23 23:41:00,30.5,17.5,30.08,SW,228,0.0,0.0,58,0.00,CLR,,0.00,WeatherDisplay:10.37,2013-01-24 04:41:00,
2013-01-23 23:46:00,30.4,17.4,30.07,SW,226,0.0,0.0,58,0.00,CLR,,0.00,WeatherDisplay:10.37,2013-01-24 04:46:00,
2013-01-23 23:51:00,30.4,17.8,30.07,SW,225,0.0,0.0,59,0.00,CLR,,0.00,WeatherDisplay:10.37,2013-01-24 04:51:00,
2013-01-23 23:56:00,30.5,17.9,30.07,West,269,0.0,0.0,59,0.00,CLR,,0.00,WeatherDisplay:10.37,2013-01-24 04:56:00,